world map with FJR marked

FJR - Airport

This information may not be accurate or current and is not valid for navigation or flight planning. No warranty of fitness for any purpose is made or implied.

flag of Fujairahflag of United Arab Emirates

Donate via PayPal

Additional information is available on the NEW Great Circle Mapper

Location
City:  Al-Fujairah, Fujairah, United Arab Emirates
Name:Fujairah International Airport
ICAO / IATA:OMFJ / FJR

Details
Type:Airport (Aerodrome, Airfield)
Use:Public/Civil
Latitude:25°06'44"N (25.112225)
Longitude:56°19'26"E (56.323964)
Datum:WGS 1984
Elevation:152 ft (46 m)
Runways:1
Longest:12303 × 148 ft (3750 × 45 m)

Time
Timezone:UTC+4 (DST+6)
Local Time:

Weather
METAR:OMFJ  041400Z 28013KT CAVOK 24/09 Q1017 RMK A3003
TAF:OMFJ  (expired)

Related Locations
Nearby:
Farthest:GMR: 11725 mi / 18870 km
Mangareva [Totegegie], Gambier Islands, PF

Find:

   beyond  
but within

Other Information
Maps:
Sources:

  


 


Great Circle Mapper   Great Circle Mapper
Great Circle Mapper FAQ   Great Circle Mapper FAQ
  Karl's Home Page
KLSē   KLSē Home
   GC on Facebook
Airlines of the World   Airlines of the World
Donate via PayPal


Copyright © 2004-2020, Karl L. Swartz. All rights reserved.
All trademarks mentioned herein belong to their respective owners.

Please see credits for attribution and copyright information.

Karl Swartz <karl@kls2.com>
  Powered by FreeBSD
Valid HTML 4.01!
Labeled with ICRA
hCard Microformat
Geo Microformat